Time;durP1;ratioP1;P1;durP2;ratioP2;P2;SDS_P1;SDS_P2;PMS_P1;PMS_P2;Temp;Humidity;BMP_temperature;BMP_pressure;BME280_temperature;BME280_humidity;BME280_pressure;Samples;Min_cycle;Max_cycle;Signal;HPM_P1;HPM_P2
2021/11/17 02:28:05;;;;;;;;;;;;;;;-145.18;100.00;60484.78;4903279;29;20044;-75
2021/11/17 02:31:05;;;;;;;17.87;5.57;;;;;;;-145.18;100.00;60484.78;4903390;29;20248;-76
2021/11/17 02:33:45;;;;;;;21.93;5.60;;;;;;;-145.18;100.00;60484.78;4902968;29;20040;-75
2021/11/17 02:36:29;;;;;;;18.37;4.73;;;;;;;-145.18;100.00;60484.78;4907273;29;20837;-75
2021/11/17 02:39:06;;;;;;;19.47;5.77;;;;;;;-145.18;100.00;60484.78;4917659;28;20081;-76
2021/11/17 02:41:50;;;;;;;21.17;7.23;;;;;;;-145.18;100.00;60484.78;4979761;28;20126;-76
2021/11/17 02:44:42;;;;;;;20.47;6.07;;;;;;;-145.18;100.00;60484.78;5015172;28;20064;-76
2021/11/17 02:47:39;;;;;;;18.70;6.20;;;;;;;-145.18;100.00;60484.78;5019714;28;20048;-75
2021/11/17 02:50:29;;;;;;;16.63;4.83;;;;;;;-145.18;100.00;60484.78;5022033;28;20605;-75
2021/11/17 02:53:14;;;;;;;20.20;5.40;;;;;;;-145.18;100.00;60484.78;5022133;28;20432;-75
2021/11/17 02:56:18;;;;;;;22.50;6.10;;;;;;;-145.18;100.00;60484.78;5011009;28;20037;-76
2021/11/17 02:59:01;;;;;;;23.83;6.13;;;;;;;-145.18;100.00;60484.78;4998959;28;20037;-75
2021/11/17 03:01:39;;;;;;;18.07;6.07;;;;;;;-145.18;100.00;60484.78;5027612;28;20037;-76
2021/11/17 03:04:23;;;;;;;20.23;5.90;;;;;;;-145.18;100.00;60484.78;5021744;28;20316;-75
2021/11/17 03:07:27;;;;;;;24.73;6.40;;;;;;;-145.18;100.00;60484.78;5017269;28;20300;-75
2021/11/17 03:10:25;;;;;;;29.80;7.07;;;;;;;-145.18;100.00;60484.78;4957530;28;20058;-75
2021/11/17 03:12:57;;;;;;;26.10;6.03;;;;;;;-145.18;100.00;60484.78;4959641;28;20289;-75
2021/11/17 03:15:45;;;;;;;27.27;8.50;;;;;;;-145.18;100.00;60484.78;4954865;28;20492;-75
2021/11/17 03:18:16;;;;;;;23.83;6.07;;;;;;;-145.18;100.00;60484.78;4947454;28;20070;-75
2021/11/17 03:20:53;;;;;;;24.00;6.67;;;;;;;-145.18;100.00;60484.78;4960240;28;20117;-75
2021/11/17 03:23:24;;;;;;;22.20;6.80;;;;;;;-145.18;100.00;60484.78;4968624;28;20034;-75
2021/11/17 03:26:08;;;;;;;22.58;6.75;;;;;;;-145.18;100.00;60484.78;4967216;28;20039;-77
2021/11/17 03:28:52;;;;;;;31.40;8.97;;;;;;;-145.18;100.00;60484.78;4966542;28;20073;-75
2021/11/17 03:31:53;;;;;;;26.50;7.60;;;;;;;-145.18;100.00;60484.78;4959413;28;20716;-75
2021/11/17 03:34:46;;;;;;;26.50;8.17;;;;;;;-145.18;100.00;60484.78;4960085;28;20266;-75
2021/11/17 03:37:30;;;;;;;27.73;8.20;;;;;;;-145.18;100.00;60484.78;4954647;28;20038;-75
2021/11/17 03:39:55;;;;;;;23.87;7.13;;;;;;;-145.18;100.00;60484.78;4961386;28;20043;-76
2021/11/17 03:42:33;;;;;;;28.50;8.50;;;;;;;-145.18;100.00;60484.78;4960164;28;20039;-74
2021/11/17 03:45:17;;;;;;;24.93;7.83;;;;;;;-145.18;100.00;60484.78;4984439;28;20627;-74
2021/11/17 03:48:01;;;;;;;28.33;7.13;;;;;;;-145.18;100.00;60484.78;5021429;28;20681;-75
2021/11/17 03:50:39;;;;;;;23.60;6.87;;;;;;;-145.18;100.00;60484.78;5018746;28;20033;-75
2021/11/17 03:53:22;;;;;;;26.17;6.80;;;;;;;-145.18;100.00;60484.78;5021542;28;20049;-75
2021/11/17 03:56:08;;;;;;;26.90;7.20;;;;;;;-145.18;100.00;60484.78;5020714;28;20475;-75
2021/11/17 03:58:49;;;;;;;28.83;7.83;;;;;;;-145.18;100.00;60484.78;5021150;28;20489;-75
2021/11/17 04:01:24;;;;;;;26.03;7.00;;;;;;;-145.18;100.00;60484.78;5019774;28;20069;-75
2021/11/17 04:03:58;;;;;;;29.77;7.90;;;;;;;-145.18;100.00;60484.78;5020829;28;20037;-75
2021/11/17 04:07:16;;;;;;;23.93;7.40;;;;;;;-145.18;100.00;60484.78;5015690;28;20045;-75
2021/11/17 04:10:02;;;;;;;28.67;7.57;;;;;;;-145.18;100.00;60484.78;4958688;28;20058;-75
2021/11/17 04:12:57;;;;;;;30.30;9.50;;;;;;;-145.18;100.00;60484.78;4959423;28;20031;-75
2021/11/17 04:15:23;;;;;;;27.23;7.73;;;;;;;-145.18;100.00;60484.78;4906192;29;20083;-75
2021/11/17 04:18:33;;;;;;;20.67;6.93;;;;;;;-145.18;100.00;60484.78;4902263;29;20032;-75
2021/11/17 04:21:21;;;;;;;24.73;7.73;;;;;;;-145.18;100.00;60484.78;4905719;29;20044;-78
2021/11/17 04:23:55;;;;;;;26.43;7.83;;;;;;;-145.18;100.00;60484.78;4862975;29;20048;-74
2021/11/17 04:26:39;;;;;;;30.10;9.83;;;;;;;-145.18;100.00;60484.78;4865925;29;20116;-75
2021/11/17 04:29:11;;;;;;;24.30;8.63;;;;;;;-145.18;100.00;60484.78;4864211;29;20559;-75
2021/11/17 04:32:04;;;;;;;28.83;7.50;;;;;;;-145.18;100.00;60484.78;4866448;29;20482;-75
2021/11/17 04:34:35;;;;;;;25.55;7.68;;;;;;;-145.18;100.00;60484.78;4863616;29;20391;-75
2021/11/17 04:37:06;;;;;;;21.97;5.47;;;;;;;-145.18;100.00;60484.78;4865067;29;20033;-75
2021/11/17 04:39:50;;;;;;;21.73;6.83;;;;;;;-145.18;100.00;60484.78;4864176;29;20098;-75
2021/11/17 04:42:43;;;;;;;27.97;7.23;;;;;;;-145.18;100.00;60484.78;4866292;29;20344;-75
2021/11/17 04:45:20;;;;;;;;;;;;;;;-145.18;100.00;60484.78;4873118;29;20166;-74
2021/11/17 04:48:08;;;;;;;26.13;7.83;;;;;;;-145.18;100.00;60484.78;4886004;29;19916;-75
2021/11/17 04:51:08;;;;;;;30.90;8.77;;;;;;;-145.18;100.00;60484.78;4893309;29;20406;-75
2021/11/17 04:54:03;;;;;;;30.97;8.77;;;;;;;-145.18;100.00;60484.78;4934365;29;20648;-75
2021/11/17 04:57:02;;;;;;;28.77;8.07;;;;;;;-145.18;100.00;60484.78;4905298;29;20084;-76
2021/11/17 04:59:49;;;;;;;27.03;7.70;;;;;;;-145.18;100.00;60484.78;4886363;29;20040;-75
2021/11/17 05:02:29;;;;;;;26.17;8.67;;;;;;;-145.18;100.00;60484.78;4909282;29;20496;-75
2021/11/17 05:04:59;;;;;;;37.03;10.17;;;;;;;-145.18;100.00;60484.78;4912641;29;20283;-75
2021/11/17 05:08:05;;;;;;;38.53;9.87;;;;;;;-145.18;100.00;60484.78;4910179;29;20035;-75
2021/11/17 05:11:06;;;;;;;31.83;9.20;;;;;;;-145.18;100.00;60484.78;4919803;29;20119;-76
2021/11/17 05:13:53;;;;;;;28.17;8.80;;;;;;;-145.18;100.00;60484.78;4885739;29;20112;-74
2021/11/17 05:16:45;;;;;;;40.20;9.67;;;;;;;-145.18;100.00;60484.78;4885838;29;20383;-75
2021/11/17 05:19:44;;;;;;;38.80;10.60;;;;;;;-145.18;100.00;60484.78;4885347;29;20032;-74
2021/11/17 05:22:12;;;;;;;38.87;9.90;;;;;;;-145.18;100.00;60484.78;4884987;29;20236;-75
2021/11/17 05:24:59;;;;;;;30.03;8.07;;;;;;;-145.18;100.00;60484.78;4885697;29;20043;-76
2021/11/17 05:27:31;;;;;;;35.97;10.33;;;;;;;-145.18;100.00;60484.78;4900808;29;20454;-75
2021/11/17 05:30:12;;;;;;;32.55;9.48;;;;;;;-145.18;100.00;60484.78;4922847;29;20069;-75
2021/11/17 05:33:07;;;;;;;33.53;9.27;;;;;;;-145.18;100.00;60484.78;4921911;29;20095;-75
2021/11/17 05:35:38;;;;;;;34.50;10.13;;;;;;;-145.18;100.00;60484.78;4884027;29;20132;-75
2021/11/17 05:38:44;;;;;;;34.10;9.07;;;;;;;-145.18;100.00;60484.78;4885292;29;20040;-74
2021/11/17 05:41:09;;;;;;;27.63;8.97;;;;;;;-145.18;100.00;60484.78;4847377;29;20053;-75
2021/11/17 05:43:45;;;;;;;37.43;9.80;;;;;;;-145.18;100.00;60484.78;4848130;29;20071;-76
2021/11/17 05:46:22;;;;;;;27.60;9.27;;;;;;;-145.18;100.00;60484.78;4844245;29;20081;-75
2021/11/17 05:49:08;;;;;;;37.87;9.40;;;;;;;-145.18;100.00;60484.78;4885227;29;20071;-75
2021/11/17 05:51:39;;;;;;;37.57;9.73;;;;;;;-145.18;100.00;60484.78;4881109;29;20518;-74
2021/11/17 05:54:26;;;;;;;36.63;9.90;;;;;;;-145.18;100.00;60484.78;4884308;29;20613;-75
2021/11/17 05:57:29;;;;;;;37.83;9.80;;;;;;;-145.18;100.00;60484.78;4884852;29;20196;-74
2021/11/17 05:59:57;;;;;;;33.67;9.27;;;;;;;-145.18;100.00;60484.78;4875700;29;20068;-75
2021/11/17 06:03:05;;;;;;;30.70;9.90;;;;;;;-145.18;100.00;60484.78;4883275;29;20052;-75
2021/11/17 06:05:30;;;;;;;31.37;8.37;;;;;;;-145.18;100.00;60484.78;4879907;29;20044;-75
2021/11/17 06:07:56;;;;;;;31.63;8.40;;;;;;;-145.18;100.00;60484.78;4884644;29;20041;-75
2021/11/17 06:10:29;;;;;;;29.63;8.43;;;;;;;-145.18;100.00;60484.78;4888804;29;20044;-75
2021/11/17 06:12:55;;;;;;;32.77;9.03;;;;;;;-145.18;100.00;60484.78;4928339;28;20041;-75
2021/11/17 06:15:22;;;;;;;28.63;10.53;;;;;;;-145.18;100.00;60484.78;4995187;28;20125;-75
2021/11/17 06:17:51;;;;;;;34.70;9.23;;;;;;;-145.18;100.00;60484.78;5022348;28;20794;-75
2021/11/17 06:20:19;;;;;;;27.53;8.17;;;;;;;-145.18;100.00;60484.78;5019224;28;20472;-75
2021/11/17 06:22:51;;;;;;;32.13;9.37;;;;;;;-145.18;100.00;60484.78;5022738;28;20463;-75
2021/11/17 06:25:18;;;;;;;31.60;9.10;;;;;;;-145.18;100.00;60484.78;5023522;28;20029;-75
2021/11/17 06:27:47;;;;;;;27.87;8.47;;;;;;;-145.18;100.00;60484.78;5021982;28;20581;-76
2021/11/17 06:30:16;;;;;;;27.77;8.03;;;;;;;-145.18;100.00;60484.78;5020794;28;20092;-75
2021/11/17 06:32:41;;;;;;;29.47;10.27;;;;;;;-145.18;100.00;60484.78;5016478;28;20587;-75
2021/11/17 06:35:08;;;;;;;27.60;8.53;;;;;;;-145.18;100.00;60484.78;5021825;28;20064;-74
2021/11/17 06:37:34;;;;;;;31.30;8.47;;;;;;;-145.18;100.00;60484.78;5020487;28;20033;-75
2021/11/17 06:40:03;;;;;;;33.10;9.43;;;;;;;-145.18;100.00;60484.78;5021494;28;20045;-74
2021/11/17 06:42:41;;;;;;;30.50;8.53;;;;;;;-145.18;100.00;60484.78;5018273;28;20112;-74
2021/11/17 06:45:12;;;;;;;30.67;10.00;;;;;;;-145.18;100.00;60484.78;5021126;28;20029;-75
2021/11/17 06:47:38;;;;;;;31.37;9.07;;;;;;;-145.18;100.00;60484.78;5018838;28;20053;-75
2021/11/17 06:50:05;;;;;;;31.03;9.50;;;;;;;-145.18;100.00;60484.78;5019977;28;20544;-76
2021/11/17 06:52:30;;;;;;;25.23;7.93;;;;;;;-145.18;100.00;60484.78;5020856;28;20033;-74
2021/11/17 06:54:55;;;;;;;26.53;7.90;;;;;;;-145.18;100.00;60484.78;5022224;28;20033;-75
2021/11/17 06:57:21;;;;;;;28.03;8.37;;;;;;;-145.18;100.00;60484.78;5021548;28;20521;-75
2021/11/17 06:59:47;;;;;;;29.07;9.60;;;;;;;-145.18;100.00;60484.78;5021459;28;20142;-74
2021/11/17 07:02:14;;;;;;;35.53;9.30;;;;;;;-145.18;100.00;60484.78;5021457;28;20559;-75
2021/11/17 07:04:39;;;;;;;31.20;8.70;;;;;;;-145.18;100.00;60484.78;5014059;28;20082;-76
2021/11/17 07:07:07;;;;;;;26.63;7.43;;;;;;;-145.18;100.00;60484.78;5021716;28;20033;-74
2021/11/17 07:09:33;;;;;;;28.50;8.23;;;;;;;-145.18;100.00;60484.78;5021675;28;20026;-75
2021/11/17 07:12:00;;;;;;;27.40;9.43;;;;;;;-145.18;100.00;60484.78;5014610;28;20664;-74
2021/11/17 07:14:25;;;;;;;28.23;8.73;;;;;;;-145.18;100.00;60484.78;5021841;28;20034;-75
2021/11/17 07:16:53;;;;;;;32.33;8.97;;;;;;;-145.18;100.00;60484.78;5021578;28;20040;-75
2021/11/17 07:19:25;;;;;;;30.53;8.23;;;;;;;-145.18;100.00;60484.78;5021268;28;20029;-75
2021/11/17 07:21:53;;;;;;;31.92;8.38;;;;;;;-145.18;100.00;60484.78;5021478;28;20041;-75
2021/11/17 07:24:20;;;;;;;32.00;9.30;;;;;;;-145.18;100.00;60484.78;5021269;28;20025;-76
2021/11/17 07:26:45;;;;;;;28.47;8.93;;;;;;;-145.18;100.00;60484.78;5020811;28;20055;-76
2021/11/17 07:29:12;;;;;;;28.57;9.40;;;;;;;-145.18;100.00;60484.78;5021556;28;20504;-75
2021/11/17 07:31:38;;;;;;;30.07;8.13;;;;;;;-145.18;100.00;60484.78;5019867;28;20036;-76
2021/11/17 07:34:04;;;;;;;37.70;9.50;;;;;;;-145.18;100.00;60484.78;5021702;28;20056;-76
2021/11/17 07:36:30;;;;;;;28.50;8.67;;;;;;;-145.18;100.00;60484.78;5021044;28;20057;-76
2021/11/17 07:38:56;;;;;;;27.03;8.40;;;;;;;-145.18;100.00;60484.78;5021408;28;20057;-76
2021/11/17 07:41:21;;;;;;;30.13;7.73;;;;;;;-145.18;100.00;60484.78;5021305;28;20029;-76
2021/11/17 07:43:47;;;;;;;35.07;10.47;;;;;;;-145.18;100.00;60484.78;5021611;28;20106;-76
2021/11/17 07:46:12;;;;;;;35.00;10.30;;;;;;;-145.18;100.00;60484.78;5020968;28;20017;-76
2021/11/17 07:48:38;;;;;;;30.80;9.10;;;;;;;-145.18;100.00;60484.78;5021186;28;20029;-76
2021/11/17 07:51:04;;;;;;;29.10;8.67;;;;;;;-145.18;100.00;60484.78;5021701;28;20033;-77
2021/11/17 07:53:30;;;;;;;34.43;10.00;;;;;;;-145.18;100.00;60484.78;5021575;28;20482;-76
2021/11/17 07:55:58;;;;;;;33.63;8.87;;;;;;;-145.18;100.00;60484.78;5021157;28;20024;-77
2021/11/17 07:58:27;;;;;;;23.73;7.37;;;;;;;-145.18;100.00;60484.78;5021320;28;20098;-76
2021/11/17 08:00:55;;;;;;;29.60;8.20;;;;;;;-145.18;100.00;60484.78;5020905;28;20025;-76
2021/11/17 08:03:24;;;;;;;26.10;8.43;;;;;;;-145.18;100.00;60484.78;5020681;28;20482;-76
2021/11/17 08:05:51;;;;;;;27.43;8.17;;;;;;;-145.18;100.00;60484.78;5020675;28;20017;-77
2021/11/17 08:08:18;;;;;;;25.97;8.40;;;;;;;-145.18;100.00;60484.78;5021454;28;20029;-76
2021/11/17 08:10:44;;;;;;;25.03;7.13;;;;;;;-145.18;100.00;60484.78;5020746;28;20053;-76
2021/11/17 08:13:10;;;;;;;29.60;8.93;;;;;;;-145.18;100.00;60484.78;5021189;28;20067;-76
2021/11/17 08:15:36;;;;;;;32.27;10.23;;;;;;;-145.18;100.00;60484.78;5020942;28;20021;-76
2021/11/17 08:18:02;;;;;;;31.83;9.10;;;;;;;-145.18;100.00;60484.78;5015729;28;20184;-76
2021/11/17 08:20:27;;;;;;;30.67;9.83;;;;;;;-145.18;100.00;60484.78;5025017;28;20040;-76
2021/11/17 08:22:55;;;;;;;32.97;10.03;;;;;;;-145.18;100.00;60484.78;5024181;28;20612;-76
2021/11/17 08:25:25;;;;;;;30.33;10.40;;;;;;;-145.18;100.00;60484.78;5024738;28;20457;-77
2021/11/17 08:27:51;;;;;;;33.47;10.57;;;;;;;-145.18;100.00;60484.78;5024765;28;20033;-77
2021/11/17 08:30:18;;;;;;;27.17;8.77;;;;;;;-145.18;100.00;60484.78;5024438;28;20145;-76
2021/11/17 08:32:44;;;;;;;29.73;9.80;;;;;;;-145.18;100.00;60484.78;5024327;28;20726;-76
2021/11/17 08:35:14;;;;;;;32.83;9.50;;;;;;;-145.18;100.00;60484.78;5024386;28;20033;-77
2021/11/17 08:37:40;;;;;;;32.33;9.57;;;;;;;-145.18;100.00;60484.78;5024171;28;20426;-75
2021/11/17 08:40:13;;;;;;;32.17;10.07;;;;;;;-145.18;100.00;60484.78;5024703;28;20121;-76
2021/11/17 08:42:40;;;;;;;29.93;9.40;;;;;;;-145.18;100.00;60484.78;5018685;28;20021;-77
2021/11/17 08:45:08;;;;;;;31.83;11.00;;;;;;;-145.18;100.00;60484.78;5024179;28;20040;-76
2021/11/17 08:47:35;;;;;;;30.50;10.90;;;;;;;-145.18;100.00;60484.78;5024205;28;20049;-76
2021/11/17 08:50:01;;;;;;;33.13;10.20;;;;;;;-145.18;100.00;60484.78;5024043;28;20036;-75
2021/11/17 08:52:26;;;;;;;33.33;9.70;;;;;;;-145.18;100.00;60484.78;5024445;28;20517;-76
2021/11/17 08:54:53;;;;;;;29.87;8.60;;;;;;;-145.18;100.00;60484.78;5024376;28;20021;-76
2021/11/17 08:57:20;;;;;;;35.70;11.47;;;;;;;-145.18;100.00;60484.78;5024372;28;20051;-77
2021/11/17 08:59:54;;;;;;;31.30;9.67;;;;;;;-145.18;100.00;60484.78;5024139;28;20131;-76
2021/11/17 09:02:21;;;;;;;31.67;10.20;;;;;;;-145.18;100.00;60484.78;5020701;28;20564;-76
2021/11/17 09:04:46;;;;;;;34.97;9.77;;;;;;;-145.18;100.00;60484.78;5020563;28;20033;-76
2021/11/17 09:07:14;;;;;;;31.97;9.97;;;;;;;-145.18;100.00;60484.78;5024109;28;20512;-76
2021/11/17 09:09:40;;;;;;;38.17;12.50;;;;;;;-145.18;100.00;60484.78;5023684;28;20110;-77
2021/11/17 09:12:06;;;;;;;37.23;9.97;;;;;;;-145.18;100.00;60484.78;5024086;28;20155;-77
2021/11/17 09:14:33;;;;;;;34.27;10.47;;;;;;;-145.18;100.00;60484.78;5023576;28;20036;-76
2021/11/17 09:16:59;;;;;;;36.90;11.03;;;;;;;-145.18;100.00;60484.78;5023935;28;20036;-76
2021/11/17 09:19:24;;;;;;;34.50;10.70;;;;;;;-145.18;100.00;60484.78;5023945;28;20661;-77
2021/11/17 09:21:51;;;;;;;37.17;11.57;;;;;;;-145.18;100.00;60484.78;5023722;28;20036;-76
2021/11/17 09:24:19;;;;;;;34.83;10.70;;;;;;;-145.18;100.00;60484.78;5023405;28;20037;-77
2021/11/17 09:26:46;;;;;;;38.00;11.77;;;;;;;-145.18;100.00;60484.78;5022962;28;20543;-76
2021/11/17 09:29:13;;;;;;;35.63;11.20;;;;;;;-145.18;100.00;60484.78;5023614;28;20087;-77
2021/11/17 09:31:41;;;;;;;33.20;10.77;;;;;;;-145.18;100.00;60484.78;5023549;28;20581;-76
2021/11/17 09:34:08;;;;;;;36.43;10.67;;;;;;;-145.18;100.00;60484.78;5023633;28;20448;-76
2021/11/17 09:36:35;;;;;;;33.73;11.37;;;;;;;-145.18;100.00;60484.78;5023274;28;20534;-76
2021/11/17 09:39:04;;;;;;;38.63;11.57;;;;;;;-145.18;100.00;60484.78;5023515;28;20029;-77
2021/11/17 09:41:34;;;;;;;34.93;11.73;;;;;;;-145.18;100.00;60484.78;5023209;28;20104;-77
2021/11/17 09:44:04;;;;;;;31.23;9.23;;;;;;;-145.18;100.00;60484.78;5023663;28;20017;-75
2021/11/17 09:46:31;;;;;;;34.43;11.77;;;;;;;-145.18;100.00;60484.78;5023416;28;20725;-75
2021/11/17 09:49:08;;;;;;;38.40;12.00;;;;;;;-145.18;100.00;60484.78;5023222;28;20040;-76
2021/11/17 09:51:43;;;;;;;36.30;12.37;;;;;;;-145.18;100.00;60484.78;5021638;28;20489;-76
2021/11/17 09:54:19;;;;;;;31.90;11.03;;;;;;;-145.18;100.00;60484.78;5023144;28;20026;-75
2021/11/17 09:57:01;;;;;;;31.00;10.60;;;;;;;-145.18;100.00;60484.78;5023152;28;20099;-76
2021/11/17 10:00:03;;;;;;;37.13;11.98;;;;;;;-145.18;100.00;60484.78;5023009;28;20029;-76
2021/11/17 10:02:45;;;;;;;36.47;11.07;;;;;;;-145.18;100.00;60484.78;4960875;28;20035;-75
2021/11/17 10:05:25;;;;;;;36.63;11.57;;;;;;;-145.18;100.00;60484.78;4961012;28;20282;-75
2021/11/17 10:13:33;;;;;;;36.50;11.10;;;;;;;-145.18;100.00;60484.78;4948330;28;20042;-75
2021/11/17 10:15:58;;;;;;;31.33;10.43;;;;;;;-145.18;100.00;60484.78;4960906;28;20070;-75
2021/11/17 10:18:32;;;;;;;32.73;11.13;;;;;;;-145.18;100.00;60484.78;4960876;28;20042;-75
2021/11/17 10:21:04;;;;;;;39.33;12.23;;;;;;;-145.18;100.00;60484.78;4959832;28;20095;-75
2021/11/17 10:23:53;;;;;;;39.87;12.80;;;;;;;-145.18;100.00;60484.78;4960562;28;20037;-75
2021/11/17 10:26:20;;;;;;;37.57;11.13;;;;;;;-145.18;100.00;60484.78;4960727;28;20078;-74
2021/11/17 10:29:27;;;;;;;38.30;12.37;;;;;;;-145.18;100.00;60484.78;4960856;28;20042;-75
2021/11/17 10:32:01;;;;;;;44.13;13.33;;;;;;;-145.18;100.00;60484.78;4960398;28;20078;-74
2021/11/17 10:34:36;;;;;;;40.03;12.13;;;;;;;-145.18;100.00;60484.78;4957954;28;20023;-75
2021/11/17 10:37:28;;;;;;;42.10;12.37;;;;;;;-145.18;100.00;60484.78;4965334;28;20045;-74
2021/11/17 10:39:53;;;;;;;39.73;11.77;;;;;;;-145.18;100.00;60484.78;5016408;28;20037;-75
2021/11/17 10:42:21;;;;;;;46.53;14.63;;;;;;;-145.18;100.00;60484.78;5022403;28;20021;-74
2021/11/17 10:44:51;;;;;;;39.67;12.60;;;;;;;-145.18;100.00;60484.78;5021427;28;20041;-75
2021/11/17 10:47:17;;;;;;;35.73;11.23;;;;;;;-145.18;100.00;60484.78;5021966;28;20036;-74
2021/11/17 10:49:46;;;;;;;36.83;12.27;;;;;;;-145.18;100.00;60484.78;5022071;28;20100;-73
2021/11/17 10:52:13;;;;;;;40.90;14.40;;;;;;;-145.18;100.00;60484.78;5022332;28;20033;-74
2021/11/17 10:54:48;;;;;;;45.90;13.67;;;;;;;-145.18;100.00;60484.78;5021856;28;20026;-74
2021/11/17 10:57:20;;;;;;;42.33;13.10;;;;;;;-145.18;100.00;60484.78;5022135;28;20119;-75
2021/11/17 10:59:46;;;;;;;44.33;13.80;;;;;;;-145.18;100.00;60484.78;5021992;28;20417;-74
2021/11/17 11:02:13;;;;;;;44.57;12.43;;;;;;;-145.18;100.00;60484.78;5021026;28;20037;-74
2021/11/17 11:04:49;;;;;;;43.70;12.00;;;;;;;-145.18;100.00;60484.78;5021402;28;20029;-75
2021/11/17 11:07:17;;;;;;;49.17;13.30;;;;;;;-145.18;100.00;60484.78;5021397;28;20022;-75
2021/11/17 11:09:57;;;;;;;46.30;14.43;;;;;;;-145.18;100.00;60484.78;5021729;28;20537;-74
2021/11/17 11:12:27;;;;;;;45.27;13.40;;;;;;;-145.18;100.00;60484.78;5021620;28;20029;-75
2021/11/17 11:14:59;;;;;;;45.07;12.90;;;;;;;-145.18;100.00;60484.78;5015513;28;20037;-74
2021/11/17 11:17:37;;;;;;;46.17;13.00;;;;;;;-145.18;100.00;60484.78;5021429;28;20116;-74
2021/11/17 11:20:18;;;;;;;44.87;14.10;;;;;;;-145.18;100.00;60484.78;5021498;28;20041;-75
2021/11/17 11:22:58;;;;;;;44.43;13.63;;;;;;;-145.18;100.00;60484.78;5011386;28;20029;-73
2021/11/17 11:25:38;;;;;;;47.37;12.53;;;;;;;-145.18;100.00;60484.78;5017507;28;20030;-76
2021/11/17 11:28:19;;;;;;;49.67;14.23;;;;;;;-145.18;100.00;60484.78;5021042;28;20025;-74
2021/11/17 11:30:45;;;;;;;51.30;14.50;;;;;;;-145.18;100.00;60484.78;5022133;28;20687;-77
2021/11/17 11:33:38;;;;;;;38.90;12.20;;;;;;;-145.18;100.00;60484.78;5021300;28;20041;-76
2021/11/17 11:36:12;;;;;;;45.80;13.40;;;;;;;-145.18;100.00;60484.78;4938500;28;20077;-77
2021/11/17 11:38:44;;;;;;;41.93;12.67;;;;;;;-145.18;100.00;60484.78;4938978;29;20122;-77
2021/11/17 11:41:27;;;;;;;;;;;;;;;-145.18;100.00;60484.78;4933768;29;20071;-76
2021/11/17 11:44:11;;;;;;;;;;;;;;;-145.18;100.00;60484.78;4939731;29;20379;-77
2021/11/17 11:46:36;;;;;;;43.47;13.07;;;;;;;-145.18;100.00;60484.78;4939187;28;19925;-77
2021/11/17 11:49:29;;;;;;;42.17;12.40;;;;;;;-145.18;100.00;60484.78;4938707;28;20034;-76
2021/11/17 11:52:19;;;;;;;31.00;11.13;;;;;;;-145.18;100.00;60484.78;4902209;29;20492;-78
2021/11/17 11:54:54;;;;;;;40.97;12.23;;;;;;;-145.18;100.00;60484.78;4904538;29;20028;-76
2021/11/17 11:57:25;;;;;;;39.07;10.80;;;;;;;-145.18;100.00;60484.78;4905345;29;20032;-78
2021/11/17 12:00:13;;;;;;;35.57;10.80;;;;;;;-145.18;100.00;60484.78;4904652;29;20507;-77
2021/11/17 12:02:41;;;;;;;36.17;11.83;;;;;;;-145.18;100.00;60484.78;4905363;29;20044;-77
2021/11/17 12:05:12;;;;;;;34.13;11.07;;;;;;;-145.18;100.00;60484.78;4904646;29;20036;-77
2021/11/17 12:07:45;;;;;;;38.80;11.60;;;;;;;-145.18;100.00;60484.78;4905469;29;20541;-77
2021/11/17 12:10:33;;;;;;;35.80;10.27;;;;;;;-145.18;100.00;60484.78;4909649;29;20123;-77
2021/11/17 12:13:11;;;;;;;31.40;9.83;;;;;;;-145.18;100.00;60484.78;4924643;28;20113;-77
2021/11/17 12:15:39;;;;;;;33.57;10.93;;;;;;;-145.18;100.00;60484.78;4981662;28;20157;-77
2021/11/17 12:18:12;;;;;;;35.27;10.90;;;;;;;-145.18;100.00;60484.78;4981759;28;20030;-77
2021/11/17 12:20:47;;;;;;;35.70;11.30;;;;;;;-145.18;100.00;60484.78;4979936;28;20027;-77
2021/11/17 12:23:19;;;;;;;35.63;10.30;;;;;;;-145.18;100.00;60484.78;4981649;28;20050;-76
2021/11/17 12:25:56;;;;;;;34.10;10.73;;;;;;;-145.18;100.00;60484.78;4977782;28;20034;-77
2021/11/17 12:28:22;;;;;;;35.93;11.67;;;;;;;-145.18;100.00;60484.78;4990038;28;20520;-76
2021/11/17 12:31:06;;;;;;;28.77;9.40;;;;;;;-145.18;100.00;60484.78;5024077;28;20037;-76
2021/11/17 12:33:46;;;;;;;34.77;10.07;;;;;;;-145.18;100.00;60484.78;5024248;28;20029;-76
2021/11/17 12:36:16;;;;;;;29.07;9.40;;;;;;;-145.18;100.00;60484.78;5023961;28;20517;-76
2021/11/17 12:38:43;;;;;;;29.03;9.47;;;;;;;-145.18;100.00;60484.78;5022943;28;20028;-75
2021/11/17 12:41:11;;;;;;;32.80;9.90;;;;;;;-145.18;100.00;60484.78;5022669;28;20504;-75
2021/11/17 12:43:41;;;;;;;29.50;9.77;;;;;;;-145.18;100.00;60484.78;5024094;28;20126;-76
2021/11/17 12:46:31;;;;;;;33.10;10.50;;;;;;;-145.18;100.00;60484.78;5023815;28;20040;-75
2021/11/17 12:49:17;;;;;;;28.00;9.00;;;;;;;-145.18;100.00;60484.78;5019037;28;20073;-76
2021/11/17 12:51:56;;;;;;;31.00;9.47;;;;;;;-145.18;100.00;60484.78;5021484;28;20072;-75
2021/11/17 12:54:50;;;;;;;26.73;8.40;;;;;;;-145.18;100.00;60484.78;5022655;28;20045;-75
2021/11/17 12:57:24;;;;;;;25.30;8.80;;;;;;;-145.18;100.00;60484.78;5024314;28;20029;-75
2021/11/17 12:59:54;;;;;;;24.37;8.17;;;;;;;-145.18;100.00;60484.78;5017380;28;20029;-76
2021/11/17 13:02:22;;;;;;;25.87;8.40;;;;;;;-145.18;100.00;60484.78;5022995;28;20028;-73
2021/11/17 13:04:51;;;;;;;23.07;8.23;;;;;;;-145.18;100.00;60484.78;5023546;28;20033;-75
2021/11/17 13:07:37;;;;;;;21.87;7.60;;;;;;;-145.18;100.00;60484.78;5020881;28;20045;-76
2021/11/17 13:10:05;;;;;;;27.80;9.47;;;;;;;-145.18;100.00;60484.78;5027888;28;20037;-76
2021/11/17 13:12:32;;;;;;;27.40;9.40;;;;;;;-145.18;100.00;60484.78;5023688;28;20104;-75
2021/11/17 13:15:11;;;;;;;24.83;8.47;;;;;;;-145.18;100.00;60484.78;5022404;28;20037;-75
2021/11/17 13:17:44;;;;;;;34.07;8.67;;;;;;;-145.18;100.00;60484.78;5010961;28;20013;-75
2021/11/17 13:20:12;;;;;;;23.23;7.33;;;;;;;-145.18;100.00;60484.78;5023243;28;20104;-75
2021/11/17 13:22:59;;;;;;;26.00;8.87;;;;;;;-145.18;100.00;60484.78;5023789;28;20083;-73
2021/11/17 13:25:48;;;;;;;29.33;8.07;;;;;;;-145.18;100.00;60484.78;4961395;28;20451;-75
2021/11/17 13:28:35;;;;;;;26.77;8.57;;;;;;;-145.18;100.00;60484.78;4961452;28;20050;-76
2021/11/17 13:31:23;;;;;;;19.90;6.93;;;;;;;-145.18;100.00;60484.78;4960912;28;20070;-75
2021/11/17 13:33:57;;;;;;;21.17;7.60;;;;;;;-145.18;100.00;60484.78;4961553;28;20421;-75
2021/11/17 13:36:37;;;;;;;26.80;8.33;;;;;;;-145.18;100.00;60484.78;4961123;28;20656;-76
2021/11/17 13:39:04;;;;;;;29.60;9.00;;;;;;;-145.18;100.00;60484.78;4961293;28;20037;-76
2021/11/17 13:41:30;;;;;;;28.00;8.30;;;;;;;-145.18;100.00;60484.78;4961487;28;20041;-76
2021/11/17 13:43:55;;;;;;;25.10;8.00;;;;;;;-145.18;100.00;60484.78;4961012;28;20792;-76
2021/11/17 13:46:21;;;;;;;25.43;7.13;;;;;;;-145.18;100.00;60484.78;4961234;28;20070;-75
2021/11/17 13:48:49;;;;;;;29.17;9.20;;;;;;;-145.18;100.00;60484.78;4961126;28;20039;-76
2021/11/17 13:51:18;;;;;;;29.40;8.73;;;;;;;-145.18;100.00;60484.78;4960975;28;20056;-76
2021/11/17 13:53:45;;;;;;;26.03;8.53;;;;;;;-145.18;100.00;60484.78;4960620;28;20038;-75
2021/11/17 13:56:15;;;;;;;29.20;8.20;;;;;;;-145.18;100.00;60484.78;4960761;28;20041;-73
2021/11/17 13:58:41;;;;;;;22.40;8.10;;;;;;;-145.18;100.00;60484.78;4960954;28;20684;-76
2021/11/17 14:01:07;;;;;;;26.43;7.53;;;;;;;-145.18;100.00;60484.78;4961008;28;20034;-75
2021/11/17 14:03:34;;;;;;;35.33;9.90;;;;;;;-145.18;100.00;60484.78;5016681;28;20121;-75
2021/11/17 14:06:03;;;;;;;28.13;7.93;;;;;;;-145.18;100.00;60484.78;5022562;28;20033;-75
2021/11/17 14:08:30;;;;;;;23.60;8.23;;;;;;;-145.18;100.00;60484.78;5022740;28;20049;-75